createdAt,value
2023-02-12T00:01:28.728Z,88.54
2023-02-12T00:03:57.949Z,89.41
2023-02-12T00:06:26.880Z,89.53
2023-02-12T00:08:56.518Z,90.07
2023-02-12T00:11:28.372Z,90.57
2023-02-12T00:13:57.768Z,90.70
2023-02-12T00:16:29.046Z,90.79
2023-02-12T00:18:58.740Z,89.33
2023-02-12T00:21:29.349Z,90.89
2023-02-12T00:23:58.431Z,90.29
2023-02-12T00:26:27.589Z,90.21
2023-02-12T00:28:56.130Z,89.26
2023-02-12T00:31:28.153Z,88.74
2023-02-12T00:33:59.547Z,90.04
2023-02-12T00:36:30.373Z,89.54
2023-02-12T00:38:59.573Z,89.53
2023-02-12T00:41:28.026Z,90.07
2023-02-12T00:43:56.189Z,89.97
2023-02-12T00:46:24.740Z,90.09
2023-02-12T00:48:53.163Z,89.67
2023-02-12T00:51:21.588Z,90.42
2023-02-12T00:53:50.096Z,91.09
2023-02-12T00:56:18.754Z,91.04
2023-02-12T00:58:50.337Z,90.81
2023-02-12T01:01:19.094Z,91.00
2023-02-12T01:03:47.542Z,90.53
2023-02-12T01:06:15.695Z,90.66
2023-02-12T01:08:44.116Z,90.36
2023-02-12T01:11:13.819Z,90.36
2023-02-12T01:13:42.098Z,90.01
2023-02-12T01:16:24.298Z,89.77
2023-02-12T01:18:56.086Z,89.30
2023-02-12T01:21:27.571Z,89.22
2023-02-12T01:23:57.130Z,89.48
2023-02-12T01:26:27.163Z,89.21
2023-02-12T01:28:58.304Z,89.22
2023-02-12T01:31:31.087Z,89.01
2023-02-12T01:34:00.714Z,89.38
2023-02-12T01:36:30.321Z,90.63
2023-02-12T01:38:59.314Z,90.07
2023-02-12T01:41:31.104Z,89.64
2023-02-12T01:44:08.610Z,90.71
2023-02-12T01:46:36.823Z,89.62
2023-02-12T01:49:09.561Z,89.57
2023-02-12T01:51:38.111Z,90.54
2023-02-12T01:54:10.542Z,89.65
2023-02-12T01:56:39.752Z,89.59
2023-02-12T01:59:08.687Z,89.17
2023-02-12T02:01:37.331Z,88.79
2023-02-12T02:04:11.361Z,88.89
2023-02-12T02:06:48.809Z,88.65
2023-02-12T02:09:19.997Z,88.83
2023-02-12T02:12:06.682Z,88.38
2023-02-12T02:14:36.363Z,88.49
2023-02-12T02:17:04.719Z,88.43
2023-02-12T02:20:06.084Z,87.98
2023-02-12T02:23:01.714Z,88.19
2023-02-12T02:26:06.380Z,87.59
2023-02-12T02:28:40.588Z,87.15
2023-02-12T02:31:28.338Z,86.85
2023-02-12T02:34:08.697Z,87.10
2023-02-12T02:37:00.230Z,87.72
2023-02-12T02:39:57.928Z,87.91
2023-02-12T02:42:33.403Z,88.23
2023-02-12T02:45:25.077Z,87.84
2023-02-12T02:48:00.509Z,87.76
2023-02-12T02:50:31.561Z,87.58
2023-02-12T02:53:08.276Z,87.48
2023-02-12T02:55:43.127Z,87.31
2023-02-12T02:58:17.141Z,87.05
2023-02-12T03:01:07.135Z,88.12
2023-02-12T03:03:43.789Z,88.90
2023-02-12T03:06:30.678Z,89.01
2023-02-12T03:09:13.278Z,89.35
2023-02-12T03:11:43.153Z,89.82
2023-02-12T03:14:29.962Z,90.20
2023-02-12T03:17:13.207Z,89.92
2023-02-12T03:19:53.022Z,89.73
2023-02-12T03:22:26.391Z,90.13
2023-02-12T03:25:04.876Z,90.08
2023-02-12T03:27:38.951Z,90.05
2023-02-12T03:30:09.000Z,90.55
2023-02-12T03:33:08.938Z,91.08
2023-02-12T03:35:56.416Z,90.70
2023-02-12T03:38:38.093Z,91.21
2023-02-12T03:41:09.947Z,91.53
2023-02-12T03:43:55.339Z,91.21
2023-02-12T03:46:50.920Z,91.17
2023-02-12T03:49:43.448Z,91.22
2023-02-12T03:52:11.649Z,90.89
2023-02-12T03:54:40.344Z,90.70
2023-02-12T03:57:13.957Z,90.51
2023-02-12T03:59:44.055Z,90.63
2023-02-12T04:02:12.906Z,91.12
2023-02-12T04:04:41.644Z,91.13
2023-02-12T04:07:10.637Z,90.86
2023-02-12T04:09:39.119Z,90.75
2023-02-12T04:12:21.111Z,90.80
2023-02-12T04:15:14.787Z,90.42
2023-02-12T04:18:12.532Z,91.09
2023-02-12T04:20:54.784Z,91.43
2023-02-12T04:23:42.592Z,91.16
2023-02-12T04:26:19.617Z,90.98
2023-02-12T04:28:59.933Z,90.67
2023-02-12T04:31:54.581Z,91.04
2023-02-12T04:34:43.428Z,91.56
2023-02-12T04:38:08.732Z,90.47
2023-02-12T04:40:40.942Z,88.40
2023-02-12T04:43:09.401Z,87.58
2023-02-12T04:45:38.257Z,88.48
2023-02-12T04:48:06.898Z,88.49
2023-02-12T04:50:40.923Z,89.46
2023-02-12T04:53:11.015Z,90.21
2023-02-12T04:55:39.218Z,90.35
2023-02-12T04:58:10.614Z,91.42
2023-02-12T05:00:41.643Z,91.91
2023-02-12T05:03:12.977Z,92.57
2023-02-12T05:05:41.244Z,93.47
2023-02-12T05:08:09.354Z,93.02
2023-02-12T05:10:37.433Z,91.89
2023-02-12T05:13:05.894Z,92.17
2023-02-12T05:15:33.948Z,92.23
2023-02-12T05:18:02.031Z,93.14
2023-02-12T05:20:30.784Z,91.99
2023-02-12T05:22:59.097Z,92.50
2023-02-12T05:25:28.010Z,91.47
2023-02-12T05:27:57.184Z,90.78
2023-02-12T05:30:28.326Z,90.80
2023-02-12T05:32:56.734Z,90.49
2023-02-12T05:35:24.848Z,90.97
2023-02-12T05:37:55.939Z,91.09
2023-02-12T05:40:24.506Z,90.98
2023-02-12T05:42:52.630Z,90.99
2023-02-12T05:45:27.967Z,91.11
2023-02-12T05:47:56.977Z,91.56
2023-02-12T05:50:25.280Z,91.50
2023-02-12T05:53:01.213Z,92.39
2023-02-12T05:55:29.498Z,92.35
2023-02-12T05:57:57.551Z,93.40
2023-02-12T06:00:26.305Z,92.62
2023-02-12T06:02:57.047Z,93.59
2023-02-12T06:05:25.153Z,94.12
2023-02-12T06:07:53.615Z,94.42
2023-02-12T06:10:24.517Z,94.81
2023-02-12T06:12:56.141Z,95.57
2023-02-12T06:15:24.534Z,95.54
2023-02-12T06:17:52.658Z,96.31
2023-02-12T06:20:20.717Z,95.56
2023-02-12T06:22:49.035Z,95.73
2023-02-12T06:25:17.320Z,96.40
2023-02-12T06:27:45.370Z,96.21
2023-02-12T06:30:14.366Z,96.88
2023-02-12T06:32:42.624Z,97.23
2023-02-12T06:35:10.740Z,96.71
2023-02-12T06:37:39.195Z,96.28
2023-02-12T06:40:07.924Z,95.78
2023-02-12T06:42:36.325Z,95.11
2023-02-12T06:45:05.297Z,93.95
2023-02-12T06:47:33.440Z,93.66
2023-02-12T06:50:05.475Z,92.80
2023-02-12T06:52:34.077Z,91.40
2023-02-12T06:55:10.666Z,91.93
2023-02-12T06:57:39.384Z,91.10
2023-02-12T07:00:08.162Z,91.46
2023-02-12T07:02:38.938Z,91.12
2023-02-12T07:05:08.163Z,92.35
2023-02-12T07:07:36.445Z,90.91
2023-02-12T07:10:04.645Z,90.85
2023-02-12T07:12:33.882Z,90.71
2023-02-12T07:15:02.081Z,90.75
2023-02-12T07:17:31.218Z,90.55
2023-02-12T07:19:59.618Z,90.97
2023-02-12T07:22:27.688Z,89.87
2023-02-12T07:24:55.832Z,90.06
2023-02-12T07:27:24.314Z,88.91
2023-02-12T07:29:52.577Z,88.53
2023-02-12T07:32:20.759Z,86.60
2023-02-12T07:34:49.144Z,85.91
2023-02-12T07:37:22.741Z,86.32
2023-02-12T07:39:51.463Z,85.53
2023-02-12T07:42:19.791Z,85.07
2023-02-12T07:44:48.793Z,85.50
2023-02-12T07:47:17.388Z,84.23
2023-02-12T07:49:45.786Z,82.16
2023-02-12T07:52:14.460Z,81.61
2023-02-12T07:54:42.881Z,81.01
2023-02-12T07:57:11.475Z,79.14
2023-02-12T07:59:39.553Z,78.42
2023-02-12T08:02:09.905Z,78.90
2023-02-12T08:04:38.425Z,77.56
2023-02-12T08:07:06.733Z,78.39
2023-02-12T08:09:34.932Z,78.89
2023-02-12T08:12:03.423Z,76.06
2023-02-12T08:14:32.046Z,77.33
2023-02-12T08:17:00.194Z,76.65
2023-02-12T08:19:28.894Z,74.69
2023-02-12T08:21:57.101Z,72.51
2023-02-12T08:24:25.923Z,72.64
2023-02-12T08:26:55.694Z,71.63
2023-02-12T08:29:27.538Z,70.61
2023-02-12T08:31:58.627Z,67.18
2023-02-12T08:34:30.041Z,65.18
2023-02-12T08:36:58.961Z,65.33
2023-02-12T08:39:29.533Z,61.53
2023-02-12T08:41:59.972Z,60.51
2023-02-12T08:44:29.264Z,60.76
2023-02-12T08:46:57.480Z,62.95
2023-02-12T08:49:29.484Z,60.76
2023-02-12T08:51:59.861Z,59.37
2023-02-12T08:54:29.599Z,58.68
2023-02-12T08:57:00.633Z,57.05
2023-02-12T08:59:29.080Z,56.67
2023-02-12T09:01:57.713Z,55.81
2023-02-12T09:04:28.187Z,55.60
2023-02-12T09:06:56.632Z,55.46
2023-02-12T09:09:25.142Z,54.37
2023-02-12T09:11:53.698Z,55.46
2023-02-12T09:14:25.273Z,54.16
2023-02-12T09:16:54.525Z,52.98
2023-02-12T09:19:23.422Z,51.17
2023-02-12T09:21:56.960Z,52.96
2023-02-12T09:24:27.655Z,52.42
2023-02-12T09:26:56.622Z,51.99
2023-02-12T09:29:25.029Z,51.03
2023-02-12T09:31:54.045Z,50.06
2023-02-12T09:34:22.219Z,49.52
2023-02-12T09:36:50.282Z,48.95
2023-02-12T09:39:19.126Z,48.88
2023-02-12T09:41:53.033Z,49.96
2023-02-12T09:44:36.169Z,48.75
2023-02-12T09:47:19.197Z,49.89
2023-02-12T09:50:22.735Z,47.61
2023-02-12T09:52:52.439Z,45.70
2023-02-12T09:55:26.323Z,48.98
2023-02-12T09:57:55.075Z,49.48
2023-02-12T10:00:23.854Z,50.91
2023-02-12T10:02:53.958Z,49.14
2023-02-12T10:05:29.218Z,47.41
2023-02-12T10:08:22.158Z,47.53
2023-02-12T10:10:54.403Z,48.92
2023-02-12T10:13:40.942Z,50.07
2023-02-12T10:16:24.781Z,48.85
2023-02-12T10:19:13.347Z,47.05
2023-02-12T10:21:57.629Z,47.84
2023-02-12T10:25:10.501Z,47.74
2023-02-12T10:27:43.590Z,48.23
2023-02-12T10:30:31.330Z,48.55
2023-02-12T10:33:06.745Z,49.10
2023-02-12T10:35:35.867Z,49.25
2023-02-12T10:38:22.618Z,48.80
2023-02-12T10:40:52.042Z,51.03
2023-02-12T10:43:20.155Z,51.15
2023-02-12T10:45:49.202Z,52.55
2023-02-12T10:48:22.236Z,53.64
2023-02-12T10:51:08.960Z,51.82
2023-02-12T10:53:40.655Z,52.73
2023-02-12T10:56:17.566Z,54.08
2023-02-12T10:59:00.411Z,53.46
2023-02-12T11:01:31.045Z,53.69
2023-02-12T11:04:18.909Z,53.84
2023-02-12T11:07:07.411Z,54.06
2023-02-12T11:09:45.646Z,54.58
2023-02-12T11:12:49.437Z,55.38
2023-02-12T11:15:22.107Z,55.41
2023-02-12T11:17:58.910Z,56.25
2023-02-12T11:20:57.922Z,56.86
2023-02-12T11:23:32.095Z,55.95
2023-02-12T11:26:18.848Z,53.87
2023-02-12T11:29:00.520Z,55.02
2023-02-12T11:31:35.311Z,54.77
2023-02-12T11:34:13.026Z,57.40
2023-02-12T11:36:44.758Z,55.91
2023-02-12T11:39:21.880Z,56.19
2023-02-12T11:42:15.360Z,57.13
2023-02-12T11:44:51.229Z,57.08
2023-02-12T11:47:31.770Z,56.14
2023-02-12T11:50:04.156Z,56.24
2023-02-12T11:52:38.471Z,57.68
2023-02-12T11:55:29.693Z,57.42
2023-02-12T11:58:13.871Z,56.07
2023-02-12T12:00:47.208Z,55.18
2023-02-12T12:03:24.322Z,53.68
2023-02-12T12:05:57.651Z,52.16
2023-02-12T12:08:34.162Z,53.73
2023-02-12T12:11:11.626Z,52.89
2023-02-12T12:14:13.655Z,54.10
2023-02-12T12:17:13.010Z,54.96
2023-02-12T12:20:02.536Z,54.32
2023-02-12T12:22:40.010Z,56.15
2023-02-12T12:25:25.207Z,56.80
2023-02-12T12:28:08.543Z,56.31
2023-02-12T12:30:39.623Z,55.89
2023-02-12T12:33:17.961Z,58.02
2023-02-12T12:36:04.987Z,55.74
2023-02-12T12:38:44.749Z,57.49
2023-02-12T12:41:51.087Z,56.97
2023-02-12T12:44:32.408Z,57.01
2023-02-12T12:47:03.789Z,57.38
2023-02-12T12:49:37.915Z,56.82
2023-02-12T12:52:43.662Z,59.11
2023-02-12T12:55:24.259Z,59.63
2023-02-12T12:58:19.388Z,59.68
2023-02-12T13:01:10.416Z,57.44
2023-02-12T13:04:16.685Z,57.07
2023-02-12T13:07:09.761Z,57.85
2023-02-12T13:10:08.811Z,57.31
2023-02-12T13:12:54.282Z,58.37
2023-02-12T13:15:39.199Z,58.39
2023-02-12T13:18:26.615Z,58.97
2023-02-12T13:21:14.063Z,58.73
2023-02-12T13:23:52.317Z,59.40
2023-02-12T13:26:30.510Z,58.97
2023-02-12T13:29:12.273Z,59.62
2023-02-12T13:31:51.242Z,58.83
2023-02-12T13:34:22.974Z,60.20
2023-02-12T13:36:51.484Z,60.34
2023-02-12T13:39:35.493Z,60.49
2023-02-12T13:42:18.342Z,61.02
2023-02-12T13:44:51.341Z,61.77
2023-02-12T13:47:48.207Z,62.53
2023-02-12T13:50:38.792Z,63.75
2023-02-12T13:53:29.278Z,64.24
2023-02-12T13:56:27.610Z,64.13
2023-02-12T13:59:00.268Z,65.00
2023-02-12T14:01:38.559Z,64.70
2023-02-12T14:04:34.224Z,65.34
2023-02-12T14:07:08.061Z,65.49
2023-02-12T14:10:06.808Z,65.22
2023-02-12T14:12:41.407Z,64.83
2023-02-12T14:15:31.174Z,65.50
2023-02-12T14:18:02.677Z,65.78
2023-02-12T14:20:34.020Z,66.07
2023-02-12T14:23:28.507Z,66.20
2023-02-12T14:26:10.009Z,66.25
2023-02-12T14:28:56.397Z,67.29
2023-02-12T14:31:28.118Z,68.01
2023-02-12T14:34:05.313Z,68.17
2023-02-12T14:36:38.872Z,67.29
2023-02-12T14:39:19.556Z,68.10
2023-02-12T14:41:57.371Z,68.01
2023-02-12T14:44:29.539Z,66.85
2023-02-12T14:47:02.688Z,67.09
2023-02-12T14:49:37.081Z,67.90
2023-02-12T14:52:17.762Z,68.27
2023-02-12T14:54:51.076Z,69.07
2023-02-12T14:57:39.770Z,68.96
2023-02-12T15:00:17.505Z,69.52
2023-02-12T15:02:53.861Z,69.24
2023-02-12T15:05:26.296Z,69.25
2023-02-12T15:08:14.001Z,69.86
2023-02-12T15:10:52.827Z,70.32
2023-02-12T15:13:24.304Z,70.17
2023-02-12T15:16:02.594Z,70.79
2023-02-12T15:18:40.950Z,71.04
2023-02-12T15:21:31.767Z,71.52
2023-02-12T15:24:09.325Z,71.21
2023-02-12T15:26:42.722Z,71.87
2023-02-12T15:29:37.442Z,72.03
2023-02-12T15:32:08.327Z,72.37
2023-02-12T15:34:40.134Z,72.19
2023-02-12T15:37:10.036Z,72.03
2023-02-12T15:39:44.665Z,71.32
2023-02-12T15:42:33.803Z,72.29
2023-02-12T15:45:14.253Z,70.80
2023-02-12T15:47:45.888Z,72.23
2023-02-12T15:50:18.327Z,72.43
2023-02-12T15:52:49.936Z,72.33
2023-02-12T15:55:25.795Z,72.80
2023-02-12T15:58:00.210Z,73.59
2023-02-12T16:00:29.113Z,74.30
2023-02-12T16:02:57.769Z,74.85
2023-02-12T16:05:27.502Z,74.98
2023-02-12T16:07:56.331Z,74.43
2023-02-12T16:10:27.203Z,74.06
2023-02-12T16:12:55.919Z,74.81
2023-02-12T16:15:28.700Z,75.28
2023-02-12T16:17:59.992Z,75.02
2023-02-12T16:20:30.713Z,75.63
2023-02-12T16:22:59.869Z,76.18
2023-02-12T16:25:31.891Z,76.61
2023-02-12T16:28:06.481Z,76.24
2023-02-12T16:30:39.050Z,77.69
2023-02-12T16:33:34.222Z,79.00
2023-02-12T16:36:06.322Z,79.53
2023-02-12T16:38:39.542Z,79.37
2023-02-12T16:41:19.801Z,79.65
2023-02-12T16:44:12.325Z,80.46
2023-02-12T16:46:50.609Z,81.28
2023-02-12T16:49:21.922Z,82.17
2023-02-12T16:51:52.592Z,82.09
2023-02-12T16:54:26.835Z,81.79
2023-02-12T16:56:56.056Z,81.63
2023-02-12T16:59:24.736Z,81.17
2023-02-12T17:02:04.138Z,82.34
2023-02-12T17:04:32.790Z,83.00
2023-02-12T17:07:01.198Z,83.05
2023-02-12T17:09:33.300Z,82.39
2023-02-12T17:12:02.671Z,84.10
2023-02-12T17:14:31.195Z,82.57
2023-02-12T17:16:59.817Z,82.36
2023-02-12T17:19:28.828Z,84.07
2023-02-12T17:21:57.756Z,84.29
2023-02-12T17:24:29.239Z,84.45
2023-02-12T17:26:58.043Z,84.34
2023-02-12T17:29:27.286Z,84.72
2023-02-12T17:31:58.841Z,86.95
2023-02-12T17:34:28.784Z,87.15
2023-02-12T17:36:59.951Z,86.15
2023-02-12T17:39:29.983Z,83.66
2023-02-12T17:42:00.405Z,83.32
2023-02-12T17:44:28.922Z,84.48
2023-02-12T17:46:59.050Z,84.86
2023-02-12T17:49:27.636Z,85.51
2023-02-12T17:51:56.647Z,86.98
2023-02-12T17:54:25.069Z,86.34
2023-02-12T17:56:53.438Z,88.55
2023-02-12T17:59:22.231Z,87.66
2023-02-12T18:01:50.674Z,87.76
2023-02-12T18:04:19.615Z,87.74
2023-02-12T18:06:47.903Z,87.75
2023-02-12T18:09:16.375Z,86.87
2023-02-12T18:11:45.836Z,85.73
2023-02-12T18:14:14.216Z,85.59
2023-02-12T18:16:42.751Z,82.62
2023-02-12T18:19:12.160Z,82.70
2023-02-12T18:21:41.051Z,83.98
2023-02-12T18:24:09.346Z,84.59
2023-02-12T18:26:38.371Z,84.55
2023-02-12T18:29:06.474Z,83.79
2023-02-12T18:31:35.289Z,82.83
2023-02-12T18:34:05.958Z,83.17
2023-02-12T18:36:34.847Z,82.77
2023-02-12T18:39:04.169Z,82.27
2023-02-12T18:41:33.484Z,82.10
2023-02-12T18:44:01.898Z,82.77
2023-02-12T18:46:31.763Z,83.02
2023-02-12T18:49:01.152Z,83.27
2023-02-12T18:51:31.828Z,83.96
2023-02-12T18:54:04.853Z,83.35
2023-02-12T18:56:40.883Z,81.41
2023-02-12T18:59:13.931Z,80.54
2023-02-12T19:01:43.173Z,80.30
2023-02-12T19:04:13.528Z,80.34
2023-02-12T19:06:46.657Z,81.77
2023-02-12T19:09:17.323Z,82.97
2023-02-12T19:11:47.466Z,82.82
2023-02-12T19:14:18.476Z,82.85
2023-02-12T19:16:47.895Z,83.00
2023-02-12T19:19:17.679Z,83.94
2023-02-12T19:21:46.798Z,83.76
2023-02-12T19:24:16.483Z,84.56
2023-02-12T19:26:45.540Z,84.93
2023-02-12T19:29:14.263Z,83.44
2023-02-12T19:31:45.689Z,83.05
2023-02-12T19:34:19.697Z,83.58
2023-02-12T19:36:49.850Z,83.78
2023-02-12T19:39:22.222Z,84.51
2023-02-12T19:41:51.891Z,85.79
2023-02-12T19:44:23.594Z,86.25
2023-02-12T19:46:53.052Z,87.18
2023-02-12T19:49:23.575Z,87.49
2023-02-12T19:51:53.043Z,87.46
2023-02-12T19:54:23.424Z,87.87
2023-02-12T19:56:53.376Z,87.71
2023-02-12T19:59:24.464Z,88.91
2023-02-12T20:01:53.342Z,89.08
2023-02-12T20:04:25.461Z,89.28
2023-02-12T20:06:54.080Z,89.59
2023-02-12T20:09:23.371Z,89.67
2023-02-12T20:11:53.867Z,90.64
2023-02-12T20:14:22.814Z,91.39
2023-02-12T20:16:56.196Z,91.35
2023-02-12T20:19:30.102Z,91.28
2023-02-12T20:22:01.726Z,90.01
2023-02-12T20:24:32.224Z,90.36
2023-02-12T20:27:02.298Z,90.39
2023-02-12T20:29:31.048Z,90.36
2023-02-12T20:31:59.731Z,90.52
2023-02-12T20:34:28.994Z,91.33
2023-02-12T20:36:58.409Z,91.46
2023-02-12T20:39:27.054Z,91.18
2023-02-12T20:41:55.742Z,91.19
2023-02-12T20:44:24.365Z,90.76
2023-02-12T20:46:56.500Z,91.29
2023-02-12T20:49:26.699Z,92.18
2023-02-12T20:51:55.402Z,92.91
2023-02-12T20:54:23.915Z,93.35
2023-02-12T20:56:53.918Z,93.15
2023-02-12T20:59:22.103Z,92.78
2023-02-12T21:01:51.013Z,92.71
2023-02-12T21:04:20.310Z,93.02
2023-02-12T21:06:48.890Z,93.24
2023-02-12T21:09:18.813Z,94.13
2023-02-12T21:11:48.679Z,94.28
2023-02-12T21:14:22.494Z,94.32
2023-02-12T21:16:54.321Z,96.35
2023-02-12T21:19:23.931Z,96.77
2023-02-12T21:21:53.198Z,96.15
2023-02-12T21:24:24.178Z,95.88
2023-02-12T21:26:54.016Z,96.10
2023-02-12T21:29:23.485Z,94.87
2023-02-12T21:31:52.728Z,96.11
2023-02-12T21:34:23.258Z,96.06
2023-02-12T21:36:54.919Z,95.65
2023-02-12T21:39:27.523Z,96.31
2023-02-12T21:42:00.269Z,95.50
2023-02-12T21:44:31.454Z,95.46
2023-02-12T21:46:59.819Z,95.60
2023-02-12T21:49:28.707Z,95.29
2023-02-12T21:52:02.032Z,94.34
2023-02-12T21:54:31.701Z,94.15
2023-02-12T21:57:00.519Z,94.10
2023-02-12T21:59:31.910Z,93.64
2023-02-12T22:02:01.988Z,94.14
2023-02-12T22:04:30.430Z,93.92
2023-02-12T22:07:02.981Z,94.62
2023-02-12T22:09:32.044Z,94.17
2023-02-12T22:12:00.443Z,93.21
2023-02-12T22:14:28.670Z,93.75
2023-02-12T22:16:57.389Z,93.79
2023-02-12T22:19:25.742Z,94.32
2023-02-12T22:21:53.938Z,93.48
2023-02-12T22:24:22.456Z,93.63
2023-02-12T22:26:54.014Z,93.50
2023-02-12T22:29:23.657Z,94.22
2023-02-12T22:31:52.399Z,93.89
2023-02-12T22:34:20.596Z,93.90
2023-02-12T22:36:49.055Z,93.85
2023-02-12T22:39:17.862Z,93.49
2023-02-12T22:41:46.362Z,93.00
2023-02-12T22:44:16.643Z,92.55
2023-02-12T22:46:48.715Z,92.59
2023-02-12T22:49:17.962Z,92.64
2023-02-12T22:51:46.760Z,93.21
2023-02-12T22:54:17.179Z,92.95
2023-02-12T22:56:49.297Z,92.88
2023-02-12T22:59:17.757Z,92.40
2023-02-12T23:01:46.250Z,92.41
2023-02-12T23:04:16.949Z,92.75
2023-02-12T23:06:46.991Z,92.29
2023-02-12T23:09:19.317Z,92.40
2023-02-12T23:11:48.366Z,91.72
2023-02-12T23:14:17.325Z,92.91
2023-02-12T23:16:45.996Z,92.44
2023-02-12T23:19:14.951Z,91.72
2023-02-12T23:21:43.500Z,92.41
2023-02-12T23:24:15.131Z,92.27
2023-02-12T23:26:43.968Z,92.67
2023-02-12T23:29:12.387Z,92.75
2023-02-12T23:31:41.187Z,92.66
2023-02-12T23:34:09.874Z,92.41
2023-02-12T23:36:37.993Z,91.17
2023-02-12T23:39:06.467Z,91.29
2023-02-12T23:41:35.014Z,91.42
2023-02-12T23:44:03.888Z,90.96
2023-02-12T23:46:32.323Z,90.84
2023-02-12T23:49:00.900Z,90.80
2023-02-12T23:51:29.136Z,90.30
2023-02-12T23:53:57.994Z,90.98
2023-02-12T23:56:26.841Z,91.01
2023-02-12T23:58:57.359Z,90.48
